Time;durP1;ratioP1;P1;durP2;ratioP2;P2;SDS_P1;SDS_P2;PMS_P1;PMS_P2;Temp;Humidity;BMP_temperature;BMP_pressure;BME280_temperature;BME280_humidity;BME280_pressure;Samples;Min_cycle;Max_cycle;Signal;HPM_P1;HPM_P2
2021/04/16 00:00:40;;;;;;;2.70;2.50;;;;;;;9.79;56.08;100328.91;5053091;28;20126;-75
2021/04/16 00:03:10;;;;;;;3.92;2.80;;;;;;;9.59;57.06;100325.19;5053852;28;20032;-74
2021/04/16 00:05:36;;;;;;;3.08;2.78;;;;;;;9.68;56.72;100323.84;5054682;28;20025;-75
2021/04/16 00:08:09;;;;;;;2.60;2.40;;;;;;;9.65;57.01;100323.75;5053478;28;20033;-74
2021/04/16 00:10:39;;;;;;;2.70;2.50;;;;;;;9.55;57.74;100321.47;5053648;28;20032;-74
2021/04/16 00:13:05;;;;;;;2.85;2.53;;;;;;;9.39;57.60;100315.84;5053866;28;20025;-75
2021/04/16 00:15:34;;;;;;;3.17;2.97;;;;;;;9.35;58.02;100312.97;5056199;28;20525;-75
2021/04/16 00:18:01;;;;;;;3.35;2.97;;;;;;;9.28;58.30;100304.44;5055055;28;20025;-75
2021/04/16 00:20:28;;;;;;;5.25;3.25;;;;;;;9.36;57.83;100320.13;5052880;28;20025;-74
2021/04/16 00:22:55;;;;;;;3.35;2.80;;;;;;;9.45;57.64;100306.91;5053078;28;20040;-74
2021/04/16 00:25:23;;;;;;;3.15;2.50;;;;;;;9.32;57.60;100298.97;5052639;28;20071;-74
2021/04/16 00:27:49;;;;;;;2.47;2.28;;;;;;;9.30;57.98;100302.09;5053234;28;20423;-74
2021/04/16 00:30:16;;;;;;;4.18;2.65;;;;;;;9.29;57.71;100300.50;5052946;28;20033;-75
2021/04/16 00:32:42;;;;;;;2.80;2.60;;;;;;;9.27;58.03;100294.50;5053937;28;20029;-74
2021/04/16 00:35:09;;;;;;;3.53;2.60;;;;;;;9.25;57.89;100277.34;5052902;28;20139;-75
2021/04/16 00:37:35;;;;;;;3.30;3.10;;;;;;;9.25;57.58;100274.59;5052805;28;20078;-74
2021/04/16 00:40:01;;;;;;;3.30;2.70;;;;;;;9.27;56.82;100252.84;5053400;28;20093;-74
2021/04/16 00:42:26;;;;;;;3.38;2.90;;;;;;;9.39;57.79;100283.34;5052781;28;20111;-75
2021/04/16 00:44:52;;;;;;;2.95;2.75;;;;;;;9.48;56.74;100285.97;5052686;28;20033;-74
2021/04/16 00:47:21;;;;;;;3.13;2.92;;;;;;;9.38;57.54;100292.03;5052947;28;20537;-74
2021/04/16 00:49:50;;;;;;;3.08;2.78;;;;;;;9.30;57.58;100296.53;5052666;28;20024;-74
2021/04/16 00:52:32;;;;;;;3.88;2.72;;;;;;;9.42;57.36;100295.69;5053944;28;20032;-74
2021/04/16 00:54:58;;;;;;;2.78;2.22;;;;;;;9.34;58.11;100289.13;5052609;28;20036;-74
2021/04/16 00:57:24;;;;;;;4.82;2.95;;;;;;;9.27;58.36;100275.06;5053425;28;20627;-74
2021/04/16 00:59:56;;;;;;;3.72;2.60;;;;;;;9.33;57.33;100273.66;5052553;28;20067;-74
2021/04/16 01:02:23;;;;;;;2.90;2.70;;;;;;;9.25;57.85;100288.47;5053351;28;20097;-74
2021/04/16 01:04:48;;;;;;;3.72;3.25;;;;;;;9.23;57.91;100290.78;5052652;28;20459;-74
2021/04/16 01:07:15;;;;;;;3.53;3.22;;;;;;;9.30;57.55;100285.44;5052183;28;20036;-74
2021/04/16 01:09:41;;;;;;;2.83;2.63;;;;;;;9.31;57.75;100281.50;5052372;28;20040;-75
2021/04/16 01:12:09;;;;;;;3.28;2.90;;;;;;;9.38;57.42;100281.72;5052680;28;20025;-74
2021/04/16 01:14:37;;;;;;;3.53;2.33;;;;;;;9.38;57.23;100280.91;5052357;28;20037;-74
2021/04/16 01:17:05;;;;;;;2.70;2.45;;;;;;;9.32;57.21;100274.81;5052064;28;20082;-74
2021/04/16 01:19:30;;;;;;;4.22;2.92;;;;;;;9.39;56.71;100277.78;5053459;28;20036;-74
2021/04/16 01:22:26;;;;;;;2.80;2.60;;;;;;;9.42;56.63;100279.84;5052282;28;20028;-74
2021/04/16 01:24:58;;;;;;;4.50;2.78;;;;;;;9.43;56.77;100273.16;5053096;28;20059;-74
2021/04/16 01:27:25;;;;;;;2.60;2.40;;;;;;;9.44;56.64;100269.19;5053569;28;20561;-74
2021/04/16 01:29:50;;;;;;;5.30;2.63;;;;;;;9.41;56.63;100269.09;5052540;28;20082;-74
2021/04/16 01:32:27;;;;;;;3.03;2.50;;;;;;;9.40;56.70;100265.50;5052215;28;20068;-74
2021/04/16 01:34:53;;;;;;;2.90;2.60;;;;;;;9.30;57.07;100260.44;5053113;28;20039;-74
2021/04/16 01:37:19;;;;;;;2.33;2.13;;;;;;;9.19;57.94;100268.47;5052191;28;20387;-74
2021/04/16 01:39:44;;;;;;;2.60;2.40;;;;;;;9.29;57.13;100261.63;5052713;28;20036;-74
2021/04/16 01:42:10;;;;;;;2.60;2.40;;;;;;;9.30;57.23;100266.00;5052400;28;20471;-74
2021/04/16 01:44:36;;;;;;;2.42;2.22;;;;;;;9.32;57.20;100258.16;5052283;28;20053;-74
2021/04/16 01:47:03;;;;;;;3.33;2.40;;;;;;;9.27;56.77;100269.50;5052329;28;20028;-74
2021/04/16 01:49:42;;;;;;;3.88;3.30;;;;;;;9.23;57.08;100257.47;5052029;28;20475;-74
2021/04/16 01:52:12;;;;;;;2.70;2.50;;;;;;;9.24;56.34;100264.63;5053870;28;20040;-74
2021/04/16 01:54:41;;;;;;;2.42;2.22;;;;;;;9.14;56.99;100254.03;5052044;28;20040;-74
2021/04/16 01:57:13;;;;;;;3.10;2.75;;;;;;;9.10;56.85;100255.88;5051978;28;20029;-74
2021/04/16 01:59:41;;;;;;;2.70;2.50;;;;;;;9.06;57.93;100257.75;5052224;28;20460;-74
2021/04/16 02:02:12;;;;;;;4.38;2.58;;;;;;;9.12;57.12;100262.72;5051914;28;20025;-74
2021/04/16 02:04:38;;;;;;;2.45;2.25;;;;;;;9.13;57.08;100257.97;5052854;28;20033;-74
2021/04/16 02:07:04;;;;;;;4.15;2.92;;;;;;;9.10;57.04;100255.88;5052207;28;20115;-74
2021/04/16 02:09:33;;;;;;;2.63;2.42;;;;;;;9.02;57.64;100254.88;5052158;28;20590;-74
2021/04/16 02:12:00;;;;;;;3.00;2.70;;;;;;;8.99;57.43;100252.78;5051874;28;20032;-74
2021/04/16 02:14:28;;;;;;;2.50;2.30;;;;;;;9.04;56.92;100248.97;5052336;28;20460;-74
2021/04/16 02:16:56;;;;;;;2.33;2.13;;;;;;;8.95;57.78;100251.06;5051800;28;20025;-74
2021/04/16 02:19:22;;;;;;;2.63;2.03;;;;;;;8.93;57.29;100255.00;5051363;28;20487;-74
2021/04/16 02:21:48;;;;;;;2.75;2.55;;;;;;;8.98;57.27;100251.19;5052502;28;20021;-75
2021/04/16 02:24:14;;;;;;;3.03;2.40;;;;;;;8.99;57.44;100250.00;5054926;28;20053;-75
2021/04/16 02:26:40;;;;;;;3.83;2.38;;;;;;;8.92;57.52;100245.06;5056007;28;20055;-75
2021/04/16 02:29:07;;;;;;;2.70;2.50;;;;;;;8.81;57.88;100241.16;5055615;28;20550;-74
2021/04/16 02:31:34;;;;;;;2.75;2.30;;;;;;;8.75;57.93;100219.56;5056636;28;20108;-74
2021/04/16 02:34:01;;;;;;;5.30;3.58;;;;;;;8.86;57.27;100238.16;5055926;28;20021;-74
2021/04/16 02:36:27;;;;;;;10.20;6.32;;;;;;;8.83;57.89;100232.47;5056023;28;20427;-74
2021/04/16 02:38:53;;;;;;;8.45;7.28;;;;;;;8.70;58.14;100231.69;5055704;28;20060;-74
2021/04/16 02:41:22;;;;;;;6.10;5.43;;;;;;;8.84;58.00;100229.38;5056240;28;20035;-75
2021/04/16 02:43:49;;;;;;;5.40;4.40;;;;;;;8.82;57.97;100231.66;5057964;28;20025;-75
2021/04/16 02:46:15;;;;;;;10.15;7.40;;;;;;;8.75;58.34;100225.91;5055963;28;20029;-75
2021/04/16 02:48:40;;;;;;;6.82;5.80;;;;;;;8.72;58.03;100234.91;5055194;28;20040;-74
2021/04/16 02:51:06;;;;;;;5.28;4.65;;;;;;;8.71;58.36;100225.00;5054882;28;20029;-74
2021/04/16 02:53:31;;;;;;;4.05;3.65;;;;;;;8.74;58.18;100226.28;5054832;28;20112;-74
2021/04/16 02:55:57;;;;;;;3.40;3.13;;;;;;;8.68;59.03;100220.13;5055081;28;20021;-74
2021/04/16 02:58:23;;;;;;;2.80;2.50;;;;;;;8.62;58.68;100221.53;5055019;28;20028;-74
2021/04/16 03:00:49;;;;;;;2.50;2.30;;;;;;;8.69;58.46;100219.00;5055015;28;20422;-74
2021/04/16 03:03:14;;;;;;;4.40;2.10;;;;;;;8.71;58.18;100218.63;5054646;28;20041;-74
2021/04/16 03:05:40;;;;;;;2.97;2.70;;;;;;;8.66;58.54;100206.63;5054517;28;20074;-74
2021/04/16 03:08:05;;;;;;;5.60;3.35;;;;;;;8.64;58.79;100205.38;5054560;28;20025;-74
2021/04/16 03:10:34;;;;;;;18.63;14.43;;;;;;;8.78;57.99;100216.06;5054503;28;20033;-74
2021/04/16 03:13:02;;;;;;;16.20;12.70;;;;;;;8.70;58.32;100215.06;5055051;28;20037;-74
2021/04/16 03:15:28;;;;;;;8.60;7.68;;;;;;;8.74;57.74;100207.66;5054686;28;20100;-74
2021/04/16 03:17:54;;;;;;;7.38;6.10;;;;;;;8.68;58.14;100199.91;5054965;28;20063;-74
2021/04/16 03:20:22;;;;;;;7.43;5.63;;;;;;;8.67;58.67;100185.22;5054622;28;20484;-74
2021/04/16 03:22:49;;;;;;;4.72;4.20;;;;;;;8.86;58.06;100179.88;5054822;28;20040;-74
2021/04/16 03:25:16;;;;;;;3.90;3.38;;;;;;;8.95;58.00;100190.00;5055183;28;20049;-74
2021/04/16 03:27:45;;;;;;;3.10;2.90;;;;;;;8.82;58.15;100186.47;5054193;28;20021;-74
2021/04/16 03:30:15;;;;;;;5.88;2.90;;;;;;;8.77;58.62;100201.38;5054435;28;20087;-74
2021/04/16 03:32:40;;;;;;;6.18;2.58;;;;;;;8.80;58.59;100202.66;5055868;28;20025;-74
2021/04/16 03:35:07;;;;;;;3.03;1.98;;;;;;;8.78;58.76;100197.44;5053241;28;20380;-74
2021/04/16 03:37:33;;;;;;;4.38;2.40;;;;;;;8.95;58.03;100212.22;5055198;28;20116;-74
2021/04/16 03:39:58;;;;;;;3.78;2.70;;;;;;;8.93;58.80;100215.34;5054517;28;20064;-74
2021/04/16 03:42:24;;;;;;;3.47;2.35;;;;;;;8.88;58.57;100219.16;5054270;28;20547;-74
2021/04/16 03:44:53;;;;;;;2.90;2.70;;;;;;;8.81;58.37;100218.97;5053740;28;20099;-74
2021/04/16 03:47:18;;;;;;;2.90;2.22;;;;;;;8.81;57.55;100221.72;5053748;28;20032;-74
2021/04/16 03:49:45;;;;;;;2.28;2.13;;;;;;;8.84;57.86;100228.53;5053744;28;20032;-74
2021/04/16 03:52:11;;;;;;;4.20;2.15;;;;;;;8.88;57.46;100213.63;5053701;28;20061;-74
2021/04/16 03:54:37;;;;;;;2.30;2.20;;;;;;;8.89;57.09;100219.97;5053948;28;20132;-74
2021/04/16 03:57:04;;;;;;;2.33;2.10;;;;;;;8.97;56.78;100216.25;5054470;28;20060;-74
2021/04/16 03:59:29;;;;;;;2.55;2.30;;;;;;;8.92;57.30;100206.22;5053565;28;20036;-74
2021/04/16 04:01:55;;;;;;;2.50;2.28;;;;;;;8.88;57.16;100208.06;5053494;28;20028;-74
2021/04/16 04:04:22;;;;;;;2.42;2.13;;;;;;;8.99;56.46;100207.56;5053693;28;20025;-74
2021/04/16 04:06:49;;;;;;;2.95;2.28;;;;;;;8.92;57.05;100192.34;5053435;28;20025;-74
2021/04/16 04:09:16;;;;;;;2.20;2.00;;;;;;;8.96;57.30;100202.75;5053083;28;20032;-74
2021/04/16 04:11:42;;;;;;;2.22;2.00;;;;;;;8.95;57.03;100207.50;5054588;28;20021;-74
2021/04/16 04:14:08;;;;;;;2.88;2.00;;;;;;;8.92;56.48;100205.41;5053835;28;20040;-74
2021/04/16 04:16:58;;;;;;;2.47;2.22;;;;;;;8.89;55.43;100204.16;5053258;28;20541;-74
2021/04/16 04:19:28;;;;;;;1.98;1.70;;;;;;;8.80;56.02;100199.91;5053767;28;20037;-74
2021/04/16 04:21:55;;;;;;;3.83;2.10;;;;;;;8.86;55.66;100199.28;5053560;28;20415;-74
2021/04/16 04:24:22;;;;;;;1.95;1.85;;;;;;;8.92;56.37;100200.66;5052835;28;20116;-74
2021/04/16 04:26:48;;;;;;;2.25;2.05;;;;;;;8.92;55.59;100197.88;5053335;28;20025;-74
2021/04/16 04:29:16;;;;;;;1.67;1.58;;;;;;;8.93;55.16;100198.69;5052723;28;20120;-74
2021/04/16 04:31:48;;;;;;;1.90;1.75;;;;;;;8.86;55.17;100188.19;5052990;28;20035;-74
2021/04/16 04:34:25;;;;;;;2.13;1.92;;;;;;;8.97;55.09;100174.63;5053523;28;20115;-74
2021/04/16 04:36:54;;;;;;;1.85;1.75;;;;;;;9.03;54.85;100180.75;5054373;28;20025;-73
2021/04/16 04:39:21;;;;;;;1.63;1.52;;;;;;;9.04;55.15;100188.72;5054440;28;20028;-74
2021/04/16 04:41:46;;;;;;;2.65;1.65;;;;;;;9.19;55.24;100187.16;5055137;28;20429;-74
2021/04/16 04:44:12;;;;;;;2.97;2.13;;;;;;;9.27;55.19;100175.09;5054535;28;20025;-74
2021/04/16 04:46:38;;;;;;;2.47;2.28;;;;;;;9.48;54.03;100177.66;5053016;28;20025;-74
2021/04/16 04:49:06;;;;;;;2.67;2.00;;;;;;;9.92;52.96;100188.72;5053474;28;20029;-75
2021/04/16 04:51:33;;;;;;;1.98;1.88;;;;;;;10.04;52.23;100193.38;5052757;28;20029;-74
2021/04/16 04:53:59;;;;;;;2.38;2.17;;;;;;;10.07;52.33;100195.47;5053008;28;20117;-74
2021/04/16 04:56:24;;;;;;;2.17;1.98;;;;;;;10.24;51.78;100192.34;5052964;28;20121;-74
2021/04/16 04:58:50;;;;;;;3.25;2.38;;;;;;;10.12;51.71;100182.09;5052974;28;20463;-74
2021/04/16 05:01:15;;;;;;;2.28;2.08;;;;;;;10.03;51.78;100194.56;5052811;28;20472;-74
2021/04/16 05:03:41;;;;;;;3.05;2.50;;;;;;;10.08;51.78;100197.06;5052808;28;20036;-74
2021/04/16 05:06:07;;;;;;;3.72;2.30;;;;;;;10.13;51.78;100203.16;5052782;28;20021;-74
2021/04/16 05:08:32;;;;;;;2.97;2.45;;;;;;;9.97;52.55;100196.81;5053117;28;20033;-74
2021/04/16 05:10:59;;;;;;;3.05;2.75;;;;;;;9.97;52.30;100203.16;5054826;28;20036;-74
2021/04/16 05:13:25;;;;;;;3.13;2.80;;;;;;;10.07;51.84;100198.25;5054533;28;20037;-75
2021/04/16 05:15:50;;;;;;;6.28;2.67;;;;;;;10.10;51.64;100189.16;5053092;28;20032;-75
2021/04/16 05:18:16;;;;;;;3.63;3.03;;;;;;;10.31;51.85;100189.72;5053394;28;20395;-74
2021/04/16 05:20:41;;;;;;;4.63;3.65;;;;;;;10.30;51.96;100190.88;5052516;28;20029;-74
2021/04/16 05:23:07;;;;;;;5.18;4.13;;;;;;;10.30;51.67;100182.53;5052319;28;20070;-74
2021/04/16 05:25:32;;;;;;;8.45;5.13;;;;;;;10.41;52.17;100189.16;5051823;28;20045;-74
2021/04/16 05:27:58;;;;;;;5.35;3.38;;;;;;;10.42;51.56;100193.56;5052570;28;20443;-74
2021/04/16 05:30:24;;;;;;;2.72;2.53;;;;;;;10.51;50.67;100196.16;5052631;28;20061;-75
2021/04/16 05:32:49;;;;;;;2.50;2.30;;;;;;;10.56;51.13;100183.94;5052534;28;20022;-74
2021/04/16 05:35:15;;;;;;;4.70;2.35;;;;;;;10.63;50.90;100193.25;5052827;28;20033;-74
2021/04/16 05:37:41;;;;;;;4.10;2.95;;;;;;;11.14;50.26;100203.50;5052348;28;20029;-74
2021/04/16 05:40:08;;;;;;;3.45;2.90;;;;;;;11.34;49.38;100196.72;5052985;28;20040;-74
2021/04/16 05:42:34;;;;;;;3.08;2.67;;;;;;;11.51;48.06;100174.00;5052148;28;20064;-74
2021/04/16 05:45:01;;;;;;;3.60;2.90;;;;;;;11.60;48.87;100195.22;5052664;28;20412;-75
2021/04/16 05:47:28;;;;;;;2.97;2.78;;;;;;;11.59;48.57;100201.97;5052440;28;20021;-74
2021/04/16 05:49:54;;;;;;;2.75;2.55;;;;;;;11.64;47.64;100193.31;5053484;28;20116;-74
2021/04/16 05:52:19;;;;;;;2.75;2.53;;;;;;;11.69;47.97;100206.97;5053189;28;20056;-74
2021/04/16 05:54:45;;;;;;;3.47;2.58;;;;;;;11.62;47.25;100207.63;5052498;28;20033;-74
2021/04/16 05:57:10;;;;;;;2.47;2.25;;;;;;;11.58;47.37;100201.19;5053367;28;20040;-74
2021/04/16 05:59:39;;;;;;;3.75;2.92;;;;;;;11.49;48.19;100204.19;5056469;28;20352;-75
2021/04/16 06:02:23;;;;;;;2.63;2.42;;;;;;;11.35;47.44;100178.84;5055935;28;20151;-75
2021/04/16 06:04:48;;;;;;;3.30;2.65;;;;;;;11.64;47.38;100204.47;5055798;28;20120;-75
2021/04/16 06:07:14;;;;;;;4.82;2.40;;;;;;;11.72;47.32;100204.25;5055448;28;20175;-75
2021/04/16 06:09:39;;;;;;;3.00;2.35;;;;;;;11.93;46.81;100194.66;5055968;28;20082;-75
2021/04/16 06:12:05;;;;;;;3.67;2.22;;;;;;;12.29;45.34;100196.88;5055795;28;20542;-75
2021/04/16 06:14:31;;;;;;;4.25;2.80;;;;;;;12.79;43.95;100186.47;5056145;28;20031;-75
2021/04/16 06:16:56;;;;;;;1.98;1.88;;;;;;;13.09;43.10;100203.22;5055713;28;20372;-75
2021/04/16 06:19:22;;;;;;;4.00;2.58;;;;;;;13.66;41.99;100207.91;5055759;28;20082;-76
2021/04/16 06:21:47;;;;;;;2.38;2.13;;;;;;;13.50;42.24;100203.34;5055698;28;20476;-75
2021/04/16 06:24:13;;;;;;;4.40;2.65;;;;;;;12.86;42.57;100196.94;5055000;28;20049;-74
2021/04/16 06:26:38;;;;;;;3.05;2.42;;;;;;;13.33;42.21;100193.56;5055738;28;20041;-74
2021/04/16 06:29:05;;;;;;;3.50;2.97;;;;;;;13.41;41.90;100200.03;5055694;28;20045;-74
2021/04/16 06:31:31;;;;;;;5.05;2.60;;;;;;;13.72;41.21;100209.16;5055956;28;20364;-74
2021/04/16 06:33:57;;;;;;;3.28;2.33;;;;;;;13.90;40.69;100204.53;5055292;28;20036;-74
2021/04/16 06:36:23;;;;;;;4.47;2.50;;;;;;;13.34;41.32;100199.97;5055666;28;20033;-75
2021/04/16 06:38:48;;;;;;;3.17;2.90;;;;;;;13.56;41.55;100210.19;5055100;28;20430;-75
2021/04/16 06:41:27;;;;;;;2.65;2.13;;;;;;;13.08;41.69;100170.88;5055070;28;20086;-75
2021/04/16 06:44:00;;;;;;;5.97;2.90;;;;;;;12.67;42.25;100202.63;5055211;28;20464;-75
2021/04/16 06:46:37;;;;;;;1.98;1.80;;;;;;;12.65;42.21;100196.63;5055024;28;20025;-75
2021/04/16 06:49:14;;;;;;;4.70;2.13;;;;;;;12.64;42.24;100203.41;5054985;28;20029;-74
2021/04/16 06:52:06;;;;;;;3.95;3.03;;;;;;;12.39;43.65;100194.63;5055022;28;20025;-74
2021/04/16 06:54:58;;;;;;;4.32;2.72;;;;;;;12.11;43.40;100167.09;5054962;28;20025;-75
2021/04/16 06:57:36;;;;;;;5.45;2.40;;;;;;;12.30;43.69;100187.34;5054582;28;20025;-74
2021/04/16 07:00:08;;;;;;;3.45;2.53;;;;;;;12.42;43.90;100205.06;5054933;28;20040;-74
2021/04/16 07:02:39;;;;;;;3.28;2.20;;;;;;;12.44;43.40;100194.31;5056147;28;20028;-74
2021/04/16 07:05:17;;;;;;;3.92;2.00;;;;;;;12.17;43.16;100171.97;5055905;28;20040;-75
2021/04/16 07:07:47;;;;;;;8.15;2.40;;;;;;;12.24;43.87;100188.00;5054590;28;20029;-74
2021/04/16 07:10:24;;;;;;;2.90;2.00;;;;;;;12.25;43.85;100184.03;5055947;28;20036;-76
2021/04/16 07:12:52;;;;;;;2.90;2.40;;;;;;;12.02;43.89;100176.50;5054762;28;20115;-75
2021/04/16 07:15:23;;;;;;;2.20;1.90;;;;;;;11.92;44.29;100173.53;5054852;28;20098;-74
2021/04/16 07:17:49;;;;;;;4.80;1.50;;;;;;;11.87;43.83;100173.84;5055088;28;20367;-74
2021/04/16 07:20:21;;;;;;;1.80;1.70;;;;;;;11.84;44.17;100153.09;5055012;28;20371;-76
2021/04/16 07:22:49;;;;;;;2.00;1.63;;;;;;;11.95;43.81;100159.66;5054371;28;20082;-75
2021/04/16 07:26:00;;;;;;;2.28;1.95;;;;;;;11.79;44.43;100167.31;5053927;28;20044;-75
2021/04/16 07:28:29;;;;;;;4.53;2.08;;;;;;;11.89;44.51;100147.22;5018231;28;20052;-75
2021/04/16 07:30:54;;;;;;;3.90;1.80;;;;;;;11.98;44.09;100152.53;5054880;28;20361;-75
2021/04/16 07:33:42;;;;;;;2.40;1.98;;;;;;;12.05;44.05;100153.47;5054244;28;20036;-75
2021/04/16 07:36:26;;;;;;;2.55;1.50;;;;;;;11.89;44.09;100150.00;5055102;28;20123;-75
2021/04/16 07:39:15;;;;;;;2.63;1.90;;;;;;;11.62;44.18;100129.59;5055836;28;20072;-75
2021/04/16 07:41:50;;;;;;;5.20;3.67;;;;;;;11.70;43.98;100159.19;5058017;28;20055;-75
2021/04/16 07:44:24;;;;;;;2.50;2.30;;;;;;;11.86;44.52;100156.31;5056481;28;20017;-75
2021/04/16 07:46:53;;;;;;;7.65;5.60;;;;;;;12.04;44.09;100151.88;5054098;28;20029;-75
2021/04/16 07:49:29;;;;;;;3.55;2.60;;;;;;;12.18;43.53;100156.03;5055052;28;20472;-74
2021/04/16 07:52:00;;;;;;;2.58;1.63;;;;;;;12.03;43.26;100161.38;5054200;28;20036;-74
2021/04/16 07:54:29;;;;;;;1.80;1.70;;;;;;;12.04;44.15;100174.16;5055384;28;20025;-74
2021/04/16 07:57:10;;;;;;;1.75;1.65;;;;;;;11.82;44.27;100183.31;5053675;28;20090;-74
2021/04/16 07:59:57;;;;;;;5.63;2.20;;;;;;;11.46;44.27;100165.94;5055625;28;20025;-74
2021/04/16 08:02:40;;;;;;;4.55;1.98;;;;;;;11.58;44.21;100183.66;5055627;28;20472;-74
2021/04/16 08:05:31;;;;;;;4.53;1.63;;;;;;;11.51;44.49;100179.56;5057123;28;20021;-74
2021/04/16 08:08:08;;;;;;;2.88;2.53;;;;;;;11.61;43.55;100189.31;5053619;28;20029;-74
2021/04/16 08:10:34;;;;;;;5.03;3.78;;;;;;;11.86;43.92;100189.78;5053615;28;20068;-75
2021/04/16 08:13:09;;;;;;;5.78;3.03;;;;;;;11.91;43.77;100188.66;5053491;28;20087;-74
2021/04/16 08:15:35;;;;;;;3.63;3.38;;;;;;;11.82;43.49;100157.44;5054717;28;20033;-74
2021/04/16 08:18:30;;;;;;;3.25;2.90;;;;;;;11.89;43.22;100183.47;5053661;28;20426;-74
2021/04/16 08:21:14;;;;;;;5.68;5.07;;;;;;;11.99;43.05;100182.84;5050926;28;20537;-74
2021/04/16 08:23:46;;;;;;;2.90;2.70;;;;;;;11.83;43.12;100184.97;5053019;28;20029;-74
2021/04/16 08:26:13;;;;;;;2.40;2.17;;;;;;;11.75;43.63;100189.56;5053173;28;20056;-74
2021/04/16 08:29:03;;;;;;;2.90;1.90;;;;;;;11.63;43.90;100191.72;5053163;28;20029;-74
2021/04/16 08:32:00;;;;;;;3.63;2.47;;;;;;;11.63;44.11;100211.22;5052990;28;20033;-74
2021/04/16 08:34:46;;;;;;;2.30;2.10;;;;;;;11.59;44.01;100202.78;5053232;28;20536;-74
2021/04/16 08:37:20;;;;;;;1.60;1.50;;;;;;;11.75;44.33;100205.47;5054390;28;20029;-74
2021/04/16 08:39:46;;;;;;;5.60;1.88;;;;;;;11.70;44.54;100208.56;5053038;28;20043;-74
2021/04/16 08:42:17;;;;;;;2.92;2.60;;;;;;;11.70;45.32;100200.19;5052983;28;20087;-74
2021/04/16 08:44:49;;;;;;;2.70;2.35;;;;;;;11.67;45.34;100198.16;5053491;28;20353;-74
2021/04/16 08:47:28;;;;;;;2.38;2.15;;;;;;;11.76;44.92;100201.50;5054432;28;20117;-74
2021/04/16 08:49:56;;;;;;;2.42;2.22;;;;;;;11.63;45.39;100189.72;5053944;28;20158;-74
2021/04/16 08:52:28;;;;;;;3.80;2.05;;;;;;;11.66;45.08;100185.38;5052766;28;20052;-74
2021/04/16 08:55:08;;;;;;;2.05;1.90;;;;;;;11.56;44.98;100161.75;5053731;28;20033;-74
2021/04/16 08:57:40;;;;;;;2.85;2.33;;;;;;;11.66;45.07;100185.38;5053288;28;20375;-75
2021/04/16 09:00:18;;;;;;;2.90;2.17;;;;;;;11.78;45.57;100177.69;5052590;28;20047;-74
2021/04/16 09:02:47;;;;;;;5.40;2.30;;;;;;;11.90;45.90;100182.28;5053505;28;20403;-74
2021/04/16 09:05:12;;;;;;;2.65;2.45;;;;;;;11.98;45.04;100186.78;5053042;28;20028;-74
2021/04/16 09:08:00;;;;;;;2.58;2.35;;;;;;;12.06;44.54;100182.97;5052573;28;20415;-75
2021/04/16 09:10:26;;;;;;;3.97;2.28;;;;;;;12.06;43.70;100157.84;5052434;28;20025;-74
2021/04/16 09:12:57;;;;;;;3.60;1.90;;;;;;;12.36;42.82;100184.22;5052438;28;20028;-74
2021/04/16 09:15:28;;;;;;;3.13;2.38;;;;;;;12.12;42.57;100136.03;5052730;28;20028;-74
2021/04/16 09:17:53;;;;;;;4.95;3.92;;;;;;;12.41;43.19;100181.09;5052476;28;20471;-74
2021/04/16 09:20:47;;;;;;;7.95;4.38;;;;;;;12.44;43.13;100185.94;5052896;28;20124;-75
2021/04/16 09:23:27;;;;;;;6.90;4.18;;;;;;;12.44;42.24;100163.63;5038081;28;20037;-75
2021/04/16 09:25:53;;;;;;;5.22;4.68;;;;;;;12.66;42.11;100190.66;5051859;28;20152;-74
2021/04/16 09:28:21;;;;;;;6.18;3.80;;;;;;;12.40;42.27;100191.47;5052618;28;20060;-75
2021/04/16 09:31:20;;;;;;;3.83;3.13;;;;;;;12.37;42.54;100183.84;5052415;28;20147;-75
2021/04/16 09:33:46;;;;;;;6.07;3.45;;;;;;;12.46;42.38;100178.78;5055354;28;20032;-75
2021/04/16 09:36:31;;;;;;;5.63;3.13;;;;;;;12.45;42.42;100170.81;5056479;28;20375;-75
2021/04/16 09:38:57;;;;;;;6.57;2.92;;;;;;;12.51;42.27;100170.09;5056075;28;20025;-75
2021/04/16 09:41:25;;;;;;;4.75;3.47;;;;;;;12.47;42.61;100160.91;5056320;28;20139;-75
2021/04/16 09:43:57;;;;;;;3.33;2.75;;;;;;;12.42;42.80;100155.63;5056214;28;20025;-75
2021/04/16 09:46:32;;;;;;;3.40;2.65;;;;;;;12.51;42.50;100153.34;5053495;28;20495;-75
2021/04/16 09:49:02;;;;;;;4.72;2.70;;;;;;;12.42;41.91;100140.88;5056970;28;20133;-75
2021/04/16 09:51:46;;;;;;;2.28;2.08;;;;;;;12.51;42.35;100164.53;5055843;28;20036;-75
2021/04/16 09:54:20;;;;;;;2.92;2.30;;;;;;;12.64;40.27;100162.31;5056106;28;20033;-74
2021/04/16 09:57:01;;;;;;;5.57;2.95;;;;;;;12.53;41.13;100187.28;5056150;28;20033;-74
2021/04/16 09:59:43;;;;;;;5.72;4.57;;;;;;;12.51;41.80;100180.47;5055940;28;20033;-74
2021/04/16 10:02:12;;;;;;;5.47;4.18;;;;;;;12.38;41.70;100167.91;5055782;28;20041;-74
2021/04/16 10:04:57;;;;;;;4.63;4.20;;;;;;;12.66;40.81;100178.69;5056691;28;20191;-74
2021/04/16 10:07:50;;;;;;;5.97;3.65;;;;;;;12.73;40.75;100173.19;5057769;28;20116;-74
2021/04/16 10:10:33;;;;;;;3.58;3.25;;;;;;;12.49;40.73;100155.72;5057707;28;20028;-74
2021/04/16 10:13:21;;;;;;;4.50;3.75;;;;;;;12.46;41.53;100178.78;5059990;28;20033;-74
2021/04/16 10:15:52;;;;;;;7.95;3.70;;;;;;;12.50;41.92;100173.28;5059758;28;20028;-74
2021/04/16 10:18:18;;;;;;;4.80;3.55;;;;;;;12.69;41.46;100164.00;5058147;28;20033;-74
2021/04/16 10:21:21;;;;;;;6.07;2.80;;;;;;;12.51;41.25;100158.13;5055563;28;20036;-75
2021/04/16 10:41:22;;;;;;;4.35;2.10;;;;;;;12.62;37.79;100158.28;5056148;28;20112;-74
2021/04/16 12:41:21;;;;;;;7.43;3.85;;;;;;;11.69;38.52;100110.22;5055894;28;20442;-73
2021/04/16 12:43:49;;;;;;;9.10;6.78;;;;;;;11.72;39.37;100111.47;5053122;28;20079;-73
2021/04/16 12:46:18;;;;;;;8.77;4.50;;;;;;;11.53;40.91;100112.31;5052979;28;20107;-73
2021/04/16 12:48:44;;;;;;;3.10;2.05;;;;;;;11.46;42.31;100106.63;5053092;28;20021;-74
2021/04/16 12:51:11;;;;;;;3.38;2.80;;;;;;;11.40;43.17;100086.63;5053611;28;20040;-74
2021/04/16 12:53:36;;;;;;;7.45;4.65;;;;;;;11.37;43.91;100070.66;5054703;28;20464;-74
2021/04/16 12:56:04;;;;;;;3.65;2.10;;;;;;;11.18;43.59;100076.25;5053235;28;20437;-74
2021/04/16 12:58:31;;;;;;;4.35;3.00;;;;;;;11.19;43.43;100056.41;5052457;28;20498;-74
2021/04/16 13:01:01;;;;;;;3.13;2.70;;;;;;;11.20;43.93;100051.66;5052235;28;20047;-74
2021/04/16 13:03:41;;;;;;;2.58;2.38;;;;;;;11.08;44.04;100057.38;5052323;28;20134;-74
2021/04/16 13:06:37;;;;;;;6.70;4.30;;;;;;;11.20;45.68;100057.22;5052948;28;20375;-73
2021/04/16 13:09:05;;;;;;;6.05;2.67;;;;;;;11.02;43.83;100060.47;5052512;28;20032;-74
2021/04/16 13:11:30;;;;;;;5.53;3.42;;;;;;;11.10;44.59;100041.91;5052933;28;20402;-74
2021/04/16 13:13:57;;;;;;;8.63;4.72;;;;;;;11.23;44.15;100039.75;5052336;28;20025;-74
2021/04/16 13:16:23;;;;;;;4.80;2.90;;;;;;;11.11;43.05;100034.34;5052642;28;20052;-74
2021/04/16 13:19:10;;;;;;;2.85;1.70;;;;;;;11.12;43.15;100028.41;5052531;28;20067;-73
2021/04/16 13:21:39;;;;;;;3.95;3.58;;;;;;;11.18;44.03;100024.16;5038298;28;20102;-73
2021/04/16 13:24:07;;;;;;;8.20;4.38;;;;;;;11.30;44.20;100012.03;5051934;28;20056;-74
2021/04/16 13:26:33;;;;;;;5.05;3.67;;;;;;;11.21;43.85;100000.34;5052761;28;20451;-74
2021/04/16 13:28:59;;;;;;;8.63;4.57;;;;;;;11.52;43.89;100016.78;5052849;28;20032;-74
2021/04/16 13:31:31;;;;;;;7.93;4.20;;;;;;;11.55;42.95;100007.66;5052957;28;20459;-73
2021/04/16 13:33:56;;;;;;;10.10;6.22;;;;;;;11.45;42.90;100005.53;5052611;28;20483;-73
2021/04/16 13:36:25;;;;;;;7.18;4.00;;;;;;;11.51;41.91;100001.25;5052607;28;20040;-74
2021/04/16 13:38:51;;;;;;;8.18;3.97;;;;;;;11.37;42.23;100001.00;5053616;28;20033;-73
2021/04/16 13:41:19;;;;;;;3.60;3.30;;;;;;;11.50;42.46;99996.03;5052254;28;20037;-73
2021/04/16 13:43:44;;;;;;;3.20;2.42;;;;;;;11.55;42.42;99988.16;5052536;28;20032;-73
2021/04/16 13:46:20;;;;;;;3.67;2.17;;;;;;;11.55;41.80;99979.78;5052080;28;20025;-74
2021/04/16 13:48:47;;;;;;;7.13;2.00;;;;;;;11.35;42.04;99985.84;5052105;28;20035;-73
2021/04/16 13:51:14;;;;;;;3.33;2.10;;;;;;;11.36;41.80;99985.47;5052100;28;20078;-73
2021/04/16 13:53:43;;;;;;;2.65;2.45;;;;;;;11.25;43.18;99987.28;5052654;28;20025;-73
2021/04/16 13:56:09;;;;;;;4.07;2.13;;;;;;;11.26;42.97;99980.53;5052075;28;20090;-75
2021/04/16 13:58:35;;;;;;;6.05;3.35;;;;;;;11.43;41.86;99980.00;5052883;28;20490;-73